Time;durP1;ratioP1;P1;durP2;ratioP2;P2;SDS_P1;SDS_P2;PMS_P1;PMS_P2;Temp;Humidity;BMP_temperature;BMP_pressure;BME280_temperature;BME280_humidity;BME280_pressure;Samples;Min_cycle;Max_cycle;Signal;HPM_P1;HPM_P2
2022/09/09 00:00:23;;;;;;;2.97;1.40;;;;;;;;;;4983508;28;99415;-69
2022/09/09 00:02:54;;;;;;;1.73;1.10;;;;;;;;;;4991633;28;98523;-69
2022/09/09 00:05:28;;;;;;;2.20;1.30;;;;;;;;;;4992462;28;99030;-69
2022/09/09 00:07:57;;;;;;;2.08;1.60;;;;;;;;;;4991814;28;98587;-70
2022/09/09 00:10:41;;;;;;;5.53;1.52;;;;;;;;;;4992933;28;98590;-69
2022/09/09 00:13:17;;;;;;;1.80;1.45;;;;;;;;;;4981740;28;99015;-70
2022/09/09 00:15:57;;;;;;;2.13;1.60;;;;;;;;;;4970320;28;99632;-69
2022/09/09 00:18:33;;;;;;;2.67;1.60;;;;;;;;;;4991699;28;100812;-70
2022/09/09 00:21:02;;;;;;;1.38;1.27;;;;;;;;;;4991932;28;100627;-70
2022/09/09 00:23:30;;;;;;;1.95;1.58;;;;;;;;;;4980372;28;99005;-70
2022/09/09 00:25:59;;;;;;;7.60;1.60;;;;;;;;;;4972270;28;99182;-70
2022/09/09 00:28:26;;;;;;;5.35;1.92;;;;;;;;;;4972255;28;99339;-69
2022/09/09 00:30:53;;;;;;;1.70;1.60;;;;;;;;;;4971872;28;98579;-69
2022/09/09 00:33:22;;;;;;;1.50;1.40;;;;;;;;;;4975290;28;98670;-70
2022/09/09 00:35:54;;;;;;;1.77;1.65;;;;;;;;;;4995065;28;99107;-69
2022/09/09 00:38:32;;;;;;;5.88;1.88;;;;;;;;;;4992222;28;98664;-70
2022/09/09 00:41:01;;;;;;;1.67;1.58;;;;;;;;;;4991330;28;100794;-69
2022/09/09 00:43:30;;;;;;;2.92;1.92;;;;;;;;;;4975167;28;98568;-69
2022/09/09 00:46:06;;;;;;;2.45;2.20;;;;;;;;;;4972175;28;99148;-69
2022/09/09 00:48:54;;;;;;;2.90;2.70;;;;;;;;;;4972306;28;100706;-69
2022/09/09 00:51:39;;;;;;;3.90;2.50;;;;;;;;;;4981759;28;98918;-70
2022/09/09 00:54:11;;;;;;;3.67;3.28;;;;;;;;;;4991422;28;98977;-69
2022/09/09 00:56:42;;;;;;;4.97;3.13;;;;;;;;;;4991633;28;99531;-70
2022/09/09 00:59:20;;;;;;;4.93;3.33;;;;;;;;;;4993540;28;97763;-70
2022/09/09 01:01:53;;;;;;;4.85;3.00;;;;;;;;;;4991750;28;99106;-70
2022/09/09 01:04:26;;;;;;;4.45;3.53;;;;;;;;;;4991502;28;98527;-70
2022/09/09 01:06:57;;;;;;;4.03;3.20;;;;;;;;;;4991722;28;99371;-70
2022/09/09 01:09:42;;;;;;;8.07;3.17;;;;;;;;;;4992300;28;99080;-69
2022/09/09 01:12:14;;;;;;;3.92;3.00;;;;;;;;;;4990268;28;98575;-70
2022/09/09 01:14:44;;;;;;;3.47;3.17;;;;;;;;;;4989908;28;101217;-70
2022/09/09 01:17:17;;;;;;;7.97;4.22;;;;;;;;;;4991546;28;100186;-70
2022/09/09 01:19:54;;;;;;;7.82;3.78;;;;;;;;;;4993055;28;98527;-70
2022/09/09 01:22:34;;;;;;;4.78;3.42;;;;;;;;;;4989540;28;99636;-69
2022/09/09 01:25:13;;;;;;;5.93;3.63;;;;;;;;;;4986489;28;97927;-70
2022/09/09 01:28:03;;;;;;;6.72;3.97;;;;;;;;;;5003292;28;100408;-70
2022/09/09 01:30:32;;;;;;;3.40;3.10;;;;;;;;;;4986865;28;101364;-69
2022/09/09 01:33:00;;;;;;;6.45;3.70;;;;;;;;;;5001847;28;99275;-70
2022/09/09 01:35:31;;;;;;;5.63;4.07;;;;;;;;;;4971819;28;99590;-70
2022/09/09 01:38:00;;;;;;;5.50;3.95;;;;;;;;;;4986157;28;101742;-70
2022/09/09 01:40:26;;;;;;;5.28;4.18;;;;;;;;;;4971053;28;98562;-70
2022/09/09 01:42:55;;;;;;;4.18;3.78;;;;;;;;;;4979950;28;101035;-70
2022/09/09 01:45:21;;;;;;;7.10;4.47;;;;;;;;;;4971302;28;99009;-70
2022/09/09 01:47:48;;;;;;;5.13;4.28;;;;;;;;;;4970555;28;98935;-69
2022/09/09 01:50:24;;;;;;;5.78;4.25;;;;;;;;;;5003551;28;100578;-70
2022/09/09 01:52:54;;;;;;;8.13;4.65;;;;;;;;;;4969434;28;98617;-71
2022/09/09 01:55:38;;;;;;;11.43;4.75;;;;;;;;;;4969435;28;100957;-71
2022/09/09 01:58:07;;;;;;;;;;;;;;;;;;5002902;28;100018;-71
2022/09/09 02:00:36;;;;;;;10.65;4.70;;;;;;;;;;5004169;28;98751;-71
2022/09/09 02:03:17;;;;;;;6.18;5.65;;;;;;;;;;5003111;28;100866;-71
2022/09/09 02:06:10;;;;;;;7.55;4.82;;;;;;;;;;4972418;28;101688;-71
2022/09/09 02:08:42;;;;;;;12.23;4.65;;;;;;;;;;4968986;28;98918;-71
2022/09/09 02:11:17;;;;;;;7.40;5.70;;;;;;;;;;4983803;28;98492;-71
2022/09/09 02:14:14;;;;;;;8.60;5.68;;;;;;;;;;4968572;28;98483;-70
2022/09/09 02:16:55;;;;;;;9.77;6.38;;;;;;;;;;5002672;28;99863;-71
2022/09/09 02:19:30;;;;;;;6.80;5.32;;;;;;;;;;5002758;28;101967;-71
2022/09/09 02:22:16;;;;;;;10.30;6.63;;;;;;;;;;5005044;28;98591;-71
2022/09/09 02:24:42;;;;;;;9.20;6.63;;;;;;;;;;4990130;28;99240;-71
2022/09/09 02:27:17;;;;;;;7.72;6.80;;;;;;;;;;4989066;28;101529;-71
2022/09/09 02:29:45;;;;;;;9.55;5.95;;;;;;;;;;4991757;28;99232;-71
2022/09/09 02:32:14;;;;;;;10.43;6.88;;;;;;;;;;4990379;28;98987;-69
2022/09/09 02:34:43;;;;;;;7.88;6.82;;;;;;;;;;4989479;28;99696;-69
2022/09/09 02:37:10;;;;;;;10.90;6.30;;;;;;;;;;4988661;28;99963;-70
2022/09/09 02:39:39;;;;;;;7.78;6.95;;;;;;;;;;4988603;28;99301;-70
2022/09/09 02:42:09;;;;;;;9.40;6.35;;;;;;;;;;4980606;28;97886;-70
2022/09/09 02:44:36;;;;;;;7.63;6.82;;;;;;;;;;4968451;28;100146;-70
2022/09/09 02:47:10;;;;;;;6.78;6.15;;;;;;;;;;4968565;28;101233;-70
2022/09/09 02:49:57;;;;;;;8.88;6.80;;;;;;;;;;4974268;28;99236;-70
2022/09/09 02:52:33;;;;;;;10.00;6.55;;;;;;;;;;4992242;28;100874;-70
2022/09/09 02:55:04;;;;;;;13.50;6.60;;;;;;;;;;4988615;28;98503;-70
2022/09/09 02:57:31;;;;;;;10.18;7.50;;;;;;;;;;4988429;28;102145;-70
2022/09/09 02:59:58;;;;;;;15.80;7.28;;;;;;;;;;4988356;28;101900;-69
2022/09/09 03:02:25;;;;;;;9.10;7.65;;;;;;;;;;4988908;28;98599;-70
2022/09/09 03:04:56;;;;;;;12.35;6.93;;;;;;;;;;4989665;28;99094;-71
2022/09/09 03:07:23;;;;;;;11.65;7.53;;;;;;;;;;4990917;28;98472;-70
2022/09/09 03:09:54;;;;;;;8.35;6.90;;;;;;;;;;4988793;28;98606;-70
2022/09/09 03:12:23;;;;;;;10.20;8.10;;;;;;;;;;5015494;28;101422;-69
2022/09/09 03:14:49;;;;;;;9.55;7.10;;;;;;;;;;4967290;28;99363;-70
2022/09/09 03:17:17;;;;;;;9.65;8.63;;;;;;;;;;4969477;28;101890;-69
2022/09/09 03:19:49;;;;;;;11.68;8.15;;;;;;;;;;4970951;28;101431;-69
2022/09/09 03:22:16;;;;;;;14.77;8.88;;;;;;;;;;4979311;28;98592;-70
2022/09/09 03:24:44;;;;;;;14.70;7.90;;;;;;;;;;4991067;28;98991;-70
2022/09/09 03:27:10;;;;;;;14.93;9.35;;;;;;;;;;4976320;28;99698;-70
2022/09/09 03:29:37;;;;;;;10.52;8.75;;;;;;;;;;4988481;28;98563;-70
2022/09/09 03:32:10;;;;;;;13.77;8.13;;;;;;;;;;4988611;28;101027;-70
2022/09/09 03:34:40;;;;;;;8.85;8.02;;;;;;;;;;4975068;28;102111;-70
2022/09/09 03:37:09;;;;;;;14.05;9.57;;;;;;;;;;4988929;28;98832;-70
2022/09/09 03:39:35;;;;;;;10.88;8.77;;;;;;;;;;5003659;28;101997;-71
2022/09/09 03:42:05;;;;;;;15.52;9.27;;;;;;;;;;4989061;28;98726;-71
2022/09/09 03:44:32;;;;;;;14.85;10.23;;;;;;;;;;4991788;28;102015;-70
2022/09/09 03:47:00;;;;;;;12.48;8.98;;;;;;;;;;4991085;28;99157;-70
2022/09/09 03:49:28;;;;;;;12.23;8.82;;;;;;;;;;4992101;28;98971;-70
2022/09/09 03:51:56;;;;;;;12.18;9.02;;;;;;;;;;5024639;28;100809;-70
2022/09/09 03:54:23;;;;;;;13.90;9.23;;;;;;;;;;4990559;28;101898;-70
2022/09/09 03:56:50;;;;;;;12.02;9.48;;;;;;;;;;4995117;28;97752;-70
2022/09/09 03:59:16;;;;;;;16.10;9.73;;;;;;;;;;4990924;28;101003;-70
2022/09/09 04:01:42;;;;;;;10.23;8.70;;;;;;;;;;4992186;28;98797;-70
2022/09/09 04:04:09;;;;;;;10.32;8.88;;;;;;;;;;4992625;28;99103;-70
2022/09/09 04:06:35;;;;;;;13.55;9.02;;;;;;;;;;5023933;28;101373;-70
2022/09/09 04:09:03;;;;;;;12.00;8.25;;;;;;;;;;4989593;28;98640;-70
2022/09/09 04:11:30;;;;;;;11.23;8.98;;;;;;;;;;4989435;28;101604;-69
2022/09/09 04:13:58;;;;;;;12.23;9.18;;;;;;;;;;4970453;28;99306;-70
2022/09/09 04:16:24;;;;;;;16.45;9.18;;;;;;;;;;4990352;28;98568;-69
2022/09/09 04:18:52;;;;;;;14.85;9.18;;;;;;;;;;4993719;28;99135;-70
2022/09/09 04:21:19;;;;;;;18.85;10.02;;;;;;;;;;4991157;28;97847;-69
2022/09/09 04:23:45;;;;;;;17.88;10.52;;;;;;;;;;4991723;28;98455;-69
2022/09/09 04:26:11;;;;;;;17.27;10.30;;;;;;;;;;4991543;28;99212;-69
2022/09/09 04:28:38;;;;;;;12.20;8.60;;;;;;;;;;4988625;28;99736;-70
2022/09/09 04:31:17;;;;;;;19.95;9.88;;;;;;;;;;4991338;28;102133;-69
2022/09/09 04:33:44;;;;;;;12.27;8.32;;;;;;;;;;4971985;28;100830;-70
2022/09/09 04:36:10;;;;;;;13.00;8.43;;;;;;;;;;4986916;28;98922;-70
2022/09/09 04:38:37;;;;;;;13.70;9.60;;;;;;;;;;5004381;28;99979;-70
2022/09/09 04:41:03;;;;;;;12.63;9.63;;;;;;;;;;4976167;28;99067;-70
2022/09/09 04:43:31;;;;;;;19.60;8.88;;;;;;;;;;4970457;28;100706;-70
2022/09/09 04:46:00;;;;;;;12.93;8.88;;;;;;;;;;5004458;28;98531;-69
2022/09/09 04:48:27;;;;;;;13.50;8.43;;;;;;;;;;4973438;28;98711;-70
2022/09/09 04:50:54;;;;;;;11.30;8.48;;;;;;;;;;4989887;28;100682;-70
2022/09/09 04:53:21;;;;;;;13.38;8.40;;;;;;;;;;4990073;28;99962;-70
2022/09/09 04:55:49;;;;;;;9.88;7.60;;;;;;;;;;4989966;28;98565;-69
2022/09/09 04:58:15;;;;;;;11.63;8.45;;;;;;;;;;4990085;28;100788;-70
2022/09/09 05:00:42;;;;;;;11.18;8.40;;;;;;;;;;4990209;28;100283;-70
2022/09/09 05:03:08;;;;;;;13.00;7.30;;;;;;;;;;4994091;28;98586;-70
2022/09/09 05:05:35;;;;;;;10.60;6.93;;;;;;;;;;4989384;28;101291;-69
2022/09/09 05:08:03;;;;;;;10.38;6.90;;;;;;;;;;4991958;28;98541;-69
2022/09/09 05:10:30;;;;;;;8.05;6.60;;;;;;;;;;4991915;28;99067;-70
2022/09/09 05:12:57;;;;;;;10.75;6.85;;;;;;;;;;4970658;28;100392;-69
2022/09/09 05:15:26;;;;;;;9.00;6.72;;;;;;;;;;4970476;28;99998;-70
2022/09/09 05:17:56;;;;;;;15.13;6.72;;;;;;;;;;4970426;28;99127;-69
2022/09/09 05:20:23;;;;;;;7.72;6.38;;;;;;;;;;5003703;28;99228;-69
2022/09/09 05:22:52;;;;;;;17.92;5.85;;;;;;;;;;4991887;28;99235;-69
2022/09/09 05:25:19;;;;;;;11.75;6.15;;;;;;;;;;4990835;28;99160;-70
2022/09/09 05:27:46;;;;;;;8.65;5.70;;;;;;;;;;4974145;28;99285;-69
2022/09/09 05:30:13;;;;;;;10.93;7.07;;;;;;;;;;5023560;28;101480;-70
2022/09/09 05:32:40;;;;;;;10.40;6.10;;;;;;;;;;4984170;28;101216;-69
2022/09/09 05:35:07;;;;;;;7.78;5.38;;;;;;;;;;4974079;28;97793;-70
2022/09/09 05:37:34;;;;;;;9.43;5.30;;;;;;;;;;4987363;28;99330;-70
2022/09/09 05:40:02;;;;;;;8.77;6.78;;;;;;;;;;4999342;28;101072;-70
2022/09/09 05:42:32;;;;;;;15.55;6.22;;;;;;;;;;4994113;28;99278;-70
2022/09/09 05:44:59;;;;;;;13.50;6.22;;;;;;;;;;5012664;28;101140;-70
2022/09/09 05:47:27;;;;;;;12.98;6.07;;;;;;;;;;5009315;28;98661;-69
2022/09/09 05:49:55;;;;;;;15.02;6.25;;;;;;;;;;5043457;27;101829;-69
2022/09/09 05:52:21;;;;;;;8.27;6.22;;;;;;;;;;5009815;28;100168;-70
2022/09/09 05:54:47;;;;;;;12.95;6.32;;;;;;;;;;5002432;28;99146;-69
2022/09/09 05:57:14;;;;;;;12.43;6.18;;;;;;;;;;4985864;28;99193;-69
2022/09/09 05:59:40;;;;;;;7.95;6.15;;;;;;;;;;4986021;28;98525;-69
2022/09/09 06:02:08;;;;;;;10.35;5.63;;;;;;;;;;4983696;28;100356;-69
2022/09/09 06:04:36;;;;;;;14.60;5.82;;;;;;;;;;4970133;28;101937;-69
2022/09/09 06:07:03;;;;;;;8.13;5.90;;;;;;;;;;4979416;28;100085;-69
2022/09/09 06:09:30;;;;;;;8.40;5.60;;;;;;;;;;4991254;28;99538;-69
2022/09/09 06:11:58;;;;;;;12.40;5.78;;;;;;;;;;4989036;28;99238;-69
2022/09/09 06:14:25;;;;;;;13.90;5.57;;;;;;;;;;4980232;28;99498;-69
2022/09/09 06:16:52;;;;;;;15.35;6.47;;;;;;;;;;4986853;28;98752;-69
2022/09/09 06:19:26;;;;;;;14.77;5.70;;;;;;;;;;5008512;28;101004;-68
2022/09/09 06:21:55;;;;;;;14.18;5.10;;;;;;;;;;4994219;28;99073;-69
2022/09/09 06:24:22;;;;;;;14.32;5.20;;;;;;;;;;5001455;28;100144;-69
2022/09/09 06:26:48;;;;;;;13.93;5.50;;;;;;;;;;5002460;28;100187;-69
2022/09/09 06:29:21;;;;;;;11.70;5.13;;;;;;;;;;4975703;28;98657;-69
2022/09/09 06:31:49;;;;;;;10.43;4.03;;;;;;;;;;4976119;28;102364;-69
2022/09/09 06:34:19;;;;;;;18.95;5.28;;;;;;;;;;4971419;28;98541;-69
2022/09/09 06:36:49;;;;;;;7.35;4.35;;;;;;;;;;4968611;28;101271;-70
2022/09/09 06:39:15;;;;;;;12.73;4.50;;;;;;;;;;4968658;28;101988;-69
2022/09/09 06:41:42;;;;;;;9.68;5.43;;;;;;;;;;4984351;28;100116;-69
2022/09/09 06:44:31;;;;;;;8.85;4.10;;;;;;;;;;4977261;28;98693;-68
2022/09/09 06:47:01;;;;;;;11.48;3.67;;;;;;;;;;4988098;28;99511;-70
2022/09/09 06:49:28;;;;;;;7.85;3.78;;;;;;;;;;5022122;28;97886;-70
2022/09/09 06:51:54;;;;;;;8.98;4.20;;;;;;;;;;4991941;28;100414;-70
2022/09/09 06:54:23;;;;;;;16.25;3.83;;;;;;;;;;4992592;28;98664;-69
2022/09/09 06:56:50;;;;;;;9.18;3.50;;;;;;;;;;4991374;28;99261;-68
2022/09/09 06:59:21;;;;;;;8.07;3.40;;;;;;;;;;4992543;28;99416;-70
2022/09/09 07:01:48;;;;;;;14.27;4.13;;;;;;;;;;4993402;28;98513;-70
2022/09/09 07:04:21;;;;;;;9.43;3.08;;;;;;;;;;4992045;28;98928;-70
2022/09/09 07:06:47;;;;;;;6.80;3.20;;;;;;;;;;4991893;28;101381;-70
2022/09/09 07:09:21;;;;;;;11.20;3.70;;;;;;;;;;4991803;28;98692;-70
2022/09/09 07:11:52;;;;;;;11.95;3.38;;;;;;;;;;4991506;28;99900;-70
2022/09/09 07:14:20;;;;;;;11.38;3.30;;;;;;;;;;4989807;28;100725;-70
2022/09/09 07:16:51;;;;;;;7.18;2.90;;;;;;;;;;4988727;28;99521;-70
2022/09/09 07:19:23;;;;;;;8.68;2.92;;;;;;;;;;5005411;28;99410;-71
2022/09/09 07:21:51;;;;;;;10.73;3.42;;;;;;;;;;4988485;28;99264;-70
2022/09/09 07:24:20;;;;;;;13.10;3.30;;;;;;;;;;5023909;28;99698;-69
2022/09/09 07:26:48;;;;;;;7.07;2.90;;;;;;;;;;4991657;28;99249;-70
2022/09/09 07:29:14;;;;;;;8.73;2.90;;;;;;;;;;4992020;28;98648;-70
2022/09/09 07:31:46;;;;;;;9.82;2.72;;;;;;;;;;4991203;28;98851;-70
2022/09/09 07:34:17;;;;;;;11.43;2.90;;;;;;;;;;4995373;28;101421;-70
2022/09/09 07:36:43;;;;;;;9.88;2.58;;;;;;;;;;4993480;28;98940;-70
2022/09/09 07:39:17;;;;;;;11.20;3.00;;;;;;;;;;4971839;28;100961;-69
2022/09/09 07:41:48;;;;;;;11.52;3.13;;;;;;;;;;4972256;28;99499;-69
2022/09/09 07:44:19;;;;;;;6.25;3.05;;;;;;;;;;4984163;28;101613;-69
2022/09/09 07:46:48;;;;;;;13.50;3.00;;;;;;;;;;4988560;28;101790;-69
2022/09/09 07:49:19;;;;;;;10.98;2.55;;;;;;;;;;4979702;28;99028;-70
2022/09/09 07:51:53;;;;;;;11.65;2.88;;;;;;;;;;4971200;28;100774;-70
2022/09/09 07:54:23;;;;;;;8.65;2.53;;;;;;;;;;5004242;28;100255;-70
2022/09/09 07:56:52;;;;;;;10.40;2.85;;;;;;;;;;5013555;28;100121;-70
2022/09/09 07:59:21;;;;;;;14.75;2.65;;;;;;;;;;5009665;28;99135;-70
2022/09/09 08:01:54;;;;;;;4.95;1.98;;;;;;;;;;4972822;28;98476;-70
2022/09/09 08:04:24;;;;;;;7.65;2.35;;;;;;;;;;4991728;28;101064;-70
2022/09/09 08:06:52;;;;;;;13.90;2.75;;;;;;;;;;4990684;28;101344;-70
2022/09/09 08:09:20;;;;;;;10.95;3.15;;;;;;;;;;4978997;28;98684;-70
2022/09/09 08:11:48;;;;;;;18.65;2.83;;;;;;;;;;4971189;28;99513;-70
2022/09/09 08:14:17;;;;;;;13.68;2.45;;;;;;;;;;4970985;28;99598;-70
2022/09/09 08:16:46;;;;;;;10.35;3.08;;;;;;;;;;5003262;28;98483;-70
2022/09/09 08:19:16;;;;;;;8.70;3.03;;;;;;;;;;5008434;28;98959;-70
2022/09/09 08:21:44;;;;;;;12.70;2.78;;;;;;;;;;5003963;28;98875;-70
2022/09/09 08:24:12;;;;;;;13.38;2.78;;;;;;;;;;5006322;28;101976;-70
2022/09/09 08:26:41;;;;;;;7.60;2.53;;;;;;;;;;4992278;28;99269;-70
2022/09/09 08:29:10;;;;;;;10.70;2.72;;;;;;;;;;4991153;28;97771;-70
2022/09/09 08:31:38;;;;;;;9.07;2.63;;;;;;;;;;5024440;28;100327;-70
2022/09/09 08:34:06;;;;;;;12.18;2.92;;;;;;;;;;4990889;28;102223;-70
2022/09/09 08:36:35;;;;;;;7.43;2.53;;;;;;;;;;4989307;28;99903;-70
2022/09/09 08:39:03;;;;;;;12.85;3.08;;;;;;;;;;4991060;28;102482;-69
2022/09/09 08:41:48;;;;;;;6.82;2.38;;;;;;;;;;4993332;28;101673;-69
2022/09/09 08:44:34;;;;;;;6.93;2.58;;;;;;;;;;4987704;28;101111;-69
2022/09/09 08:47:11;;;;;;;8.43;2.65;;;;;;;;;;4990495;28;101940;-69
2022/09/09 08:49:46;;;;;;;6.93;3.08;;;;;;;;;;4990214;28;99036;-69
2022/09/09 08:52:15;;;;;;;8.05;2.42;;;;;;;;;;5024696;28;101495;-70
2022/09/09 08:54:42;;;;;;;11.70;3.03;;;;;;;;;;4990757;28;100580;-69
2022/09/09 08:57:26;;;;;;;16.35;2.70;;;;;;;;;;4990156;28;98711;-69
2022/09/09 08:59:55;;;;;;;10.95;2.85;;;;;;;;;;4975027;28;101506;-69
2022/09/09 09:02:25;;;;;;;11.00;2.55;;;;;;;;;;4969838;28;102987;-69
2022/09/09 09:05:03;;;;;;;10.98;2.53;;;;;;;;;;4974125;28;98512;-69
2022/09/09 09:07:30;;;;;;;13.90;3.40;;;;;;;;;;4970503;28;102294;-69
2022/09/09 09:10:08;;;;;;;6.35;1.92;;;;;;;;;;5003222;28;99130;-69
2022/09/09 09:12:54;;;;;;;10.23;2.72;;;;;;;;;;4987314;28;101735;-70
2022/09/09 09:15:28;;;;;;;9.55;2.67;;;;;;;;;;4969541;28;102057;-70
2022/09/09 09:17:58;;;;;;;5.35;2.30;;;;;;;;;;4969946;28;98576;-70
2022/09/09 09:20:42;;;;;;;10.38;2.65;;;;;;;;;;4988134;28;101179;-69
2022/09/09 09:23:16;;;;;;;13.35;2.95;;;;;;;;;;4970860;28;101363;-69
2022/09/09 09:25:44;;;;;;;10.80;2.42;;;;;;;;;;4986060;28;98505;-69
2022/09/09 09:28:11;;;;;;;7.15;2.65;;;;;;;;;;4989735;28;99265;-69
2022/09/09 09:30:46;;;;;;;10.43;3.00;;;;;;;;;;5002969;28;98525;-69
2022/09/09 09:33:17;;;;;;;9.60;2.63;;;;;;;;;;4970570;28;101054;-69
2022/09/09 09:35:44;;;;;;;12.25;3.00;;;;;;;;;;5003195;28;101720;-69
2022/09/09 09:38:16;;;;;;;8.55;2.53;;;;;;;;;;5002741;28;99398;-69
2022/09/09 09:41:03;;;;;;;8.50;2.20;;;;;;;;;;4970276;28;98874;-69
2022/09/09 09:43:31;;;;;;;10.68;2.35;;;;;;;;;;4970029;28;100179;-69
2022/09/09 09:46:03;;;;;;;5.22;2.28;;;;;;;;;;5003125;28;97809;-69
2022/09/09 09:48:46;;;;;;;8.45;2.30;;;;;;;;;;5006137;28;98506;-69
2022/09/09 09:51:15;;;;;;;7.07;2.63;;;;;;;;;;4971869;28;98507;-69
2022/09/09 09:53:42;;;;;;;8.98;2.30;;;;;;;;;;5002238;28;101270;-69
2022/09/09 09:56:13;;;;;;;10.68;3.15;;;;;;;;;;4997778;28;101263;-69
2022/09/09 09:58:45;;;;;;;6.45;2.42;;;;;;;;;;5002700;28;98814;-69
2022/09/09 10:01:25;;;;;;;11.80;2.88;;;;;;;;;;5003313;28;99862;-69
2022/09/09 10:03:52;;;;;;;11.95;2.95;;;;;;;;;;4971102;28;100059;-70
2022/09/09 10:06:29;;;;;;;11.52;3.80;;;;;;;;;;5002676;28;98517;-69
2022/09/09 10:08:55;;;;;;;9.45;2.33;;;;;;;;;;4970752;28;99245;-69
2022/09/09 10:11:45;;;;;;;10.85;2.45;;;;;;;;;;4974527;28;99683;-69
2022/09/09 10:14:19;;;;;;;13.07;2.63;;;;;;;;;;4959235;28;100309;-69
2022/09/09 10:17:03;;;;;;;6.55;2.20;;;;;;;;;;4970377;28;100198;-70
2022/09/09 10:19:31;;;;;;;8.05;2.70;;;;;;;;;;4970652;28;99341;-69
2022/09/09 10:22:05;;;;;;;5.82;2.58;;;;;;;;;;4969683;28;99581;-69
2022/09/09 10:24:41;;;;;;;14.90;2.50;;;;;;;;;;4989240;28;99533;-70
2022/09/09 10:27:25;;;;;;;10.68;2.83;;;;;;;;;;4973067;28;98907;-69
2022/09/09 10:30:10;;;;;;;14.55;2.75;;;;;;;;;;4970732;28;99909;-69
2022/09/09 10:32:40;;;;;;;10.20;2.67;;;;;;;;;;4970655;28;100079;-69
2022/09/09 10:35:10;;;;;;;13.32;2.25;;;;;;;;;;4973471;28;99417;-69
2022/09/09 10:37:45;;;;;;;12.50;3.20;;;;;;;;;;4971203;28;99382;-70
2022/09/09 10:40:25;;;;;;;11.70;2.33;;;;;;;;;;4971041;28;98568;-69
2022/09/09 10:42:58;;;;;;;8.95;2.80;;;;;;;;;;4969961;28;99888;-70
2022/09/09 10:45:24;;;;;;;;;;;;;;;;;;4970286;28;100101;-69
2022/09/09 10:47:56;;;;;;;13.98;4.80;;;;;;;;;;4970857;28;118333;-69
2022/09/09 10:50:34;;;;;;;8.68;3.08;;;;;;;;;;4971481;28;98988;-69
2022/09/09 10:53:39;;;;;;;10.70;3.42;;;;;;;;;;4978792;28;99424;-69
2022/09/09 10:56:10;;;;;;;10.75;2.72;;;;;;;;;;4989495;28;98541;-69
2022/09/09 10:58:42;;;;;;;10.65;3.70;;;;;;;;;;4993200;28;98879;-69
2022/09/09 11:01:15;;;;;;;4.55;2.22;;;;;;;;;;4990271;28;98525;-69
2022/09/09 11:03:43;;;;;;;11.00;3.20;;;;;;;;;;4989281;28;99135;-70
2022/09/09 11:06:13;;;;;;;8.95;2.70;;;;;;;;;;4989986;28;100865;-69
2022/09/09 11:08:40;;;;;;;6.97;2.38;;;;;;;;;;4990219;28;98631;-69
2022/09/09 11:11:09;;;;;;;9.32;2.22;;;;;;;;;;4989306;28;100428;-69
2022/09/09 11:13:54;;;;;;;9.32;2.47;;;;;;;;;;4990415;28;99789;-70
2022/09/09 11:16:20;;;;;;;11.77;2.80;;;;;;;;;;4989425;28;98933;-69
2022/09/09 11:18:47;;;;;;;5.88;2.63;;;;;;;;;;4990325;28;99070;-69
2022/09/09 11:21:27;;;;;;;6.63;2.40;;;;;;;;;;4992946;28;99675;-69
2022/09/09 11:23:55;;;;;;;7.90;2.60;;;;;;;;;;4971736;28;99044;-69
2022/09/09 11:26:30;;;;;;;9.45;2.63;;;;;;;;;;4969138;28;99540;-69
2022/09/09 11:29:16;;;;;;;8.32;2.35;;;;;;;;;;4981496;28;97926;-69
2022/09/09 11:31:46;;;;;;;5.57;2.10;;;;;;;;;;4969420;28;98504;-70
2022/09/09 11:34:25;;;;;;;7.18;2.33;;;;;;;;;;4984638;28;99125;-69
2022/09/09 11:37:04;;;;;;;7.43;2.28;;;;;;;;;;4988085;28;99998;-69
2022/09/09 11:39:31;;;;;;;11.00;3.00;;;;;;;;;;4992168;28;100354;-69
2022/09/09 11:42:07;;;;;;;12.20;2.55;;;;;;;;;;4992767;28;99170;-69
2022/09/09 11:44:34;;;;;;;10.57;2.55;;;;;;;;;;5005028;28;98577;-69
2022/09/09 11:47:00;;;;;;;5.72;2.03;;;;;;;;;;4985455;28;99520;-69
2022/09/09 11:49:26;;;;;;;6.88;2.08;;;;;;;;;;4985321;28;98455;-70
2022/09/09 11:51:53;;;;;;;12.00;2.70;;;;;;;;;;4991222;28;98977;-69
2022/09/09 11:54:32;;;;;;;6.85;2.13;;;;;;;;;;4993443;28;99550;-69
2022/09/09 11:56:59;;;;;;;3.22;1.80;;;;;;;;;;4992622;28;98553;-70
2022/09/09 11:59:27;;;;;;;9.90;2.60;;;;;;;;;;4992133;28;99056;-69
2022/09/09 12:02:01;;;;;;;11.25;2.70;;;;;;;;;;4991764;28;100972;-69
2022/09/09 12:04:30;;;;;;;10.98;2.45;;;;;;;;;;4996598;28;98539;-70
2022/09/09 12:06:59;;;;;;;6.60;2.13;;;;;;;;;;4991699;28;100218;-69
2022/09/09 12:09:28;;;;;;;5.22;2.30;;;;;;;;;;4992944;28;98560;-69
2022/09/09 12:12:06;;;;;;;10.60;2.60;;;;;;;;;;4992821;28;99853;-70
2022/09/09 12:14:43;;;;;;;12.20;2.30;;;;;;;;;;4991505;28;100223;-69
2022/09/09 12:17:30;;;;;;;11.00;2.30;;;;;;;;;;4993013;28;98448;-69
2022/09/09 12:20:04;;;;;;;6.53;2.40;;;;;;;;;;4981166;28;99924;-73
2022/09/09 12:22:38;;;;;;;8.32;2.25;;;;;;;;;;4972622;28;100476;-72
2022/09/09 12:25:04;;;;;;;12.13;2.38;;;;;;;;;;4980122;28;98529;-71
2022/09/09 12:27:36;;;;;;;7.25;3.25;;;;;;;;;;4994407;28;99242;-71
2022/09/09 12:30:09;;;;;;;5.53;2.20;;;;;;;;;;4992688;28;98493;-73
2022/09/09 12:32:35;;;;;;;11.40;2.50;;;;;;;;;;4992698;28;100251;-72
2022/09/09 12:35:03;;;;;;;5.43;2.13;;;;;;;;;;4991469;28;100381;-72
2022/09/09 12:37:32;;;;;;;5.43;2.40;;;;;;;;;;4992301;28;99174;-72
2022/09/09 12:40:06;;;;;;;11.18;2.83;;;;;;;;;;4992186;28;99002;-72
2022/09/09 12:42:35;;;;;;;6.50;2.53;;;;;;;;;;4991419;28;99315;-71
2022/09/09 12:45:16;;;;;;;5.10;2.35;;;;;;;;;;4993052;28;97711;-72
2022/09/09 12:47:48;;;;;;;7.13;2.50;;;;;;;;;;4990286;28;98938;-72
2022/09/09 12:50:20;;;;;;;6.47;2.57;;;;;;;;;;4991664;28;100231;-71
2022/09/09 12:52:49;;;;;;;7.93;2.38;;;;;;;;;;4986561;28;100318;-72
2022/09/09 12:55:21;;;;;;;12.27;3.10;;;;;;;;;;4990648;28;99487;-72
2022/09/09 12:57:50;;;;;;;8.63;2.67;;;;;;;;;;4992000;28;98713;-72
2022/09/09 13:00:17;;;;;;;6.85;2.40;;;;;;;;;;4990694;28;99169;-72
2022/09/09 13:02:54;;;;;;;6.57;2.47;;;;;;;;;;4988504;28;100277;-71
2022/09/09 13:05:25;;;;;;;6.85;3.08;;;;;;;;;;4972451;28;98934;-71
2022/09/09 13:07:51;;;;;;;6.38;2.30;;;;;;;;;;4971882;28;99147;-71
2022/09/09 13:10:23;;;;;;;6.35;2.58;;;;;;;;;;4972563;28;99299;-70
2022/09/09 13:13:02;;;;;;;8.48;2.67;;;;;;;;;;4984622;28;98559;-70
2022/09/09 13:15:29;;;;;;;8.13;2.35;;;;;;;;;;4988572;28;99622;-71
2022/09/09 13:17:57;;;;;;;9.25;2.33;;;;;;;;;;4975200;28;99797;-71
2022/09/09 13:20:24;;;;;;;5.93;2.28;;;;;;;;;;4972252;28;99963;-71
2022/09/09 13:22:52;;;;;;;9.15;1.92;;;;;;;;;;4969792;28;99253;-71
2022/09/09 13:25:20;;;;;;;8.20;2.47;;;;;;;;;;4975625;28;101252;-70
2022/09/09 13:27:53;;;;;;;4.38;2.28;;;;;;;;;;4987016;28;99281;-70
2022/09/09 13:30:22;;;;;;;11.02;3.08;;;;;;;;;;4978072;28;99936;-70
2022/09/09 13:33:07;;;;;;;6.35;2.55;;;;;;;;;;4978640;28;98630;-71
2022/09/09 13:35:34;;;;;;;4.28;2.42;;;;;;;;;;4985325;28;100002;-70
2022/09/09 13:38:08;;;;;;;7.28;2.15;;;;;;;;;;4977094;28;99029;-71
2022/09/09 13:40:35;;;;;;;3.42;1.88;;;;;;;;;;4990432;28;100238;-71
2022/09/09 13:43:02;;;;;;;10.25;2.58;;;;;;;;;;4984056;28;100042;-71
2022/09/09 13:45:28;;;;;;;7.25;2.85;;;;;;;;;;4974015;28;99590;-71
2022/09/09 13:47:55;;;;;;;5.95;2.40;;;;;;;;;;4977701;28;99733;-71
2022/09/09 13:50:21;;;;;;;4.40;2.65;;;;;;;;;;4982259;28;99624;-70
2022/09/09 13:52:51;;;;;;;5.53;2.47;;;;;;;;;;4983210;28;99087;-70
2022/09/09 13:55:18;;;;;;;4.15;1.95;;;;;;;;;;4983167;28;99077;-70
2022/09/09 13:57:50;;;;;;;6.47;2.80;;;;;;;;;;4971609;28;98512;-70
2022/09/09 14:00:17;;;;;;;10.27;3.45;;;;;;;;;;4971525;28;99302;-70
2022/09/09 14:02:43;;;;;;;2.97;2.20;;;;;;;;;;4982159;28;100488;-70
2022/09/09 14:05:11;;;;;;;4.05;2.33;;;;;;;;;;4990787;28;98895;-70
2022/09/09 14:07:38;;;;;;;7.82;2.58;;;;;;;;;;4990300;28;100051;-70
2022/09/09 14:10:05;;;;;;;10.93;2.40;;;;;;;;;;4990418;28;99030;-71
2022/09/09 14:12:32;;;;;;;4.13;2.40;;;;;;;;;;4990341;28;98521;-70
2022/09/09 14:14:59;;;;;;;3.78;2.00;;;;;;;;;;4990394;28;99854;-70
2022/09/09 14:17:30;;;;;;;6.05;2.63;;;;;;;;;;4994012;28;100198;-70
2022/09/09 14:19:57;;;;;;;7.90;2.75;;;;;;;;;;4989713;28;98938;-70
2022/09/09 14:22:24;;;;;;;10.43;2.88;;;;;;;;;;4990551;28;100178;-70
2022/09/09 14:24:50;;;;;;;5.90;2.10;;;;;;;;;;4976233;28;98686;-70
2022/09/09 14:27:18;;;;;;;3.63;1.95;;;;;;;;;;4970493;28;98344;-70
2022/09/09 14:29:44;;;;;;;6.40;2.63;;;;;;;;;;4970340;28;100246;-70
2022/09/09 14:32:11;;;;;;;5.07;2.00;;;;;;;;;;4970685;28;99564;-70
2022/09/09 14:34:38;;;;;;;7.28;2.60;;;;;;;;;;4970570;28;99837;-70
2022/09/09 14:37:04;;;;;;;5.00;2.30;;;;;;;;;;4971103;28;99336;-70
2022/09/09 14:39:31;;;;;;;7.18;2.30;;;;;;;;;;4987523;28;100346;-70
2022/09/09 14:41:58;;;;;;;6.38;2.80;;;;;;;;;;4973017;28;99425;-71
2022/09/09 14:44:25;;;;;;;7.95;2.50;;;;;;;;;;4990044;28;100240;-72
2022/09/09 14:46:53;;;;;;;5.90;2.55;;;;;;;;;;4989352;28;98989;-72
2022/09/09 14:49:19;;;;;;;5.28;2.63;;;;;;;;;;4979465;28;99684;-71
2022/09/09 14:51:45;;;;;;;10.43;2.85;;;;;;;;;;4970605;28;98797;-72
2022/09/09 14:54:12;;;;;;;6.88;2.80;;;;;;;;;;4971208;28;99900;-72